Romford, United Kingdom
Current Conditions -  °F | °C
As of 5:20 PM on Sunday 21 Dec 2014 (Local Time) from EGLC Reporting Station
Few Clouds Few Clouds  
Wind Chill: 52°   Ceiling: Unl
Heat Index: 52°   Visibility: 6mi
Dew Point: 43°   Wind: 18mph
Humidity: 71%   Direction: 240°WSW
Pressure: 30.21"   Gusts: 30mph
Location:  51.57°N, 0.18°E
Report Text: EGLC 211720Z 24016G26KT 9999 FEW022 11/06 Q1023
Loading
Personal Weather Stations






























Interactive Weather Map New forecast layout! Learn more

10-Day Weather Forecast

Advertisements
Track Severe Weather on mobile